sensor_id;sensor_type;location;lat;lon;timestamp;temperature;humidity
43991;DHT22;29654;50.784;20.604;2024-03-02T00:02:12;12.80;59.50
43991;DHT22;29654;50.784;20.604;2024-03-02T00:07:15;12.80;59.30
43991;DHT22;29654;50.784;20.604;2024-03-02T00:12:20;12.80;59.30
43991;DHT22;29654;50.784;20.604;2024-03-02T00:17:25;12.80;59.30
43991;DHT22;29654;50.784;20.604;2024-03-02T00:22:27;12.80;59.40
43991;DHT22;29654;50.784;20.604;2024-03-02T00:27:32;12.80;59.30
43991;DHT22;29654;50.784;20.604;2024-03-02T00:32:35;12.80;59.30
43991;DHT22;29654;50.784;20.604;2024-03-02T00:37:41;12.80;59.30
43991;DHT22;29654;50.784;20.604;2024-03-02T00:42:46;12.80;59.50
43991;DHT22;29654;50.784;20.604;2024-03-02T00:47:49;12.70;59.40
43991;DHT22;29654;50.784;20.604;2024-03-02T00:52:51;12.70;59.40
43991;DHT22;29654;50.784;20.604;2024-03-02T00:57:56;12.70;59.40
43991;DHT22;29654;50.784;20.604;2024-03-02T01:02:59;12.70;59.40
43991;DHT22;29654;50.784;20.604;2024-03-02T01:08:02;12.70;59.40
43991;DHT22;29654;50.784;20.604;2024-03-02T01:13:07;12.60;59.30
43991;DHT22;29654;50.784;20.604;2024-03-02T01:18:10;12.60;59.50
43991;DHT22;29654;50.784;20.604;2024-03-02T01:23:13;12.50;59.40
43991;DHT22;29654;50.784;20.604;2024-03-02T01:28:17;12.50;59.40
43991;DHT22;29654;50.784;20.604;2024-03-02T01:33:21;12.50;59.60
43991;DHT22;29654;50.784;20.604;2024-03-02T01:38:24;12.40;59.50
43991;DHT22;29654;50.784;20.604;2024-03-02T01:43:28;12.40;59.50
43991;DHT22;29654;50.784;20.604;2024-03-02T01:48:31;12.40;59.50
43991;DHT22;29654;50.784;20.604;2024-03-02T01:53:35;12.30;59.50
43991;DHT22;29654;50.784;20.604;2024-03-02T01:58:39;12.30;59.60
43991;DHT22;29654;50.784;20.604;2024-03-02T02:03:42;12.30;59.70
43991;DHT22;29654;50.784;20.604;2024-03-02T02:08:46;12.30;59.80
43991;DHT22;29654;50.784;20.604;2024-03-02T02:13:51;12.30;59.90
43991;DHT22;29654;50.784;20.604;2024-03-02T02:18:56;12.20;59.80
43991;DHT22;29654;50.784;20.604;2024-03-02T02:24:08;12.30;59.90
43991;DHT22;29654;50.784;20.604;2024-03-02T02:29:17;12.30;60.90
43991;DHT22;29654;50.784;20.604;2024-03-02T02:34:20;12.20;59.90
43991;DHT22;29654;50.784;20.604;2024-03-02T02:39:24;12.30;60.00
43991;DHT22;29654;50.784;20.604;2024-03-02T02:44:27;12.30;60.20
43991;DHT22;29654;50.784;20.604;2024-03-02T02:49:29;12.30;60.20
43991;DHT22;29654;50.784;20.604;2024-03-02T02:54:37;12.30;60.20
43991;DHT22;29654;50.784;20.604;2024-03-02T02:59:40;12.40;60.50
43991;DHT22;29654;50.784;20.604;2024-03-02T03:04:43;12.40;60.30
43991;DHT22;29654;50.784;20.604;2024-03-02T03:09:47;12.40;60.30
43991;DHT22;29654;50.784;20.604;2024-03-02T03:14:50;12.50;60.40
43991;DHT22;29654;50.784;20.604;2024-03-02T03:19:53;12.60;60.20
43991;DHT22;29654;50.784;20.604;2024-03-02T03:24:57;12.60;60.20
43991;DHT22;29654;50.784;20.604;2024-03-02T03:30:00;12.60;60.30
43991;DHT22;29654;50.784;20.604;2024-03-02T03:35:04;12.60;60.20
43991;DHT22;29654;50.784;20.604;2024-03-02T03:40:10;12.70;60.30
43991;DHT22;29654;50.784;20.604;2024-03-02T03:45:15;12.70;60.30
43991;DHT22;29654;50.784;20.604;2024-03-02T03:50:17;12.70;60.20
43991;DHT22;29654;50.784;20.604;2024-03-02T03:55:22;12.70;60.10
43991;DHT22;29654;50.784;20.604;2024-03-02T04:00:25;12.70;60.00
43991;DHT22;29654;50.784;20.604;2024-03-02T04:05:28;12.70;60.00
43991;DHT22;29654;50.784;20.604;2024-03-02T04:10:32;12.80;60.00
43991;DHT22;29654;50.784;20.604;2024-03-02T04:15:36;12.80;60.00
43991;DHT22;29654;50.784;20.604;2024-03-02T04:20:39;12.80;59.80
43991;DHT22;29654;50.784;20.604;2024-03-02T04:25:43;12.80;59.80
43991;DHT22;29654;50.784;20.604;2024-03-02T04:30:46;12.70;59.90
43991;DHT22;29654;50.784;20.604;2024-03-02T04:35:48;12.70;59.90
43991;DHT22;29654;50.784;20.604;2024-03-02T04:40:53;12.70;60.00
43991;DHT22;29654;50.784;20.604;2024-03-02T04:45:55;12.60;60.00
43991;DHT22;29654;50.784;20.604;2024-03-02T04:50:58;12.60;59.90
43991;DHT22;29654;50.784;20.604;2024-03-02T04:56:03;12.60;59.90
43991;DHT22;29654;50.784;20.604;2024-03-02T05:01:20;12.60;60.00
43991;DHT22;29654;50.784;20.604;2024-03-02T05:06:23;12.50;60.00
43991;DHT22;29654;50.784;20.604;2024-03-02T05:11:27;12.50;60.00
43991;DHT22;29654;50.784;20.604;2024-03-02T05:17:04;12.50;60.20
43991;DHT22;29654;50.784;20.604;2024-03-02T05:22:07;12.40;60.20
43991;DHT22;29654;50.784;20.604;2024-03-02T05:27:11;12.40;60.30
43991;DHT22;29654;50.784;20.604;2024-03-02T05:32:14;12.40;60.30
43991;DHT22;29654;50.784;20.604;2024-03-02T05:37:16;12.40;60.30
43991;DHT22;29654;50.784;20.604;2024-03-02T05:42:21;12.40;60.30
43991;DHT22;29654;50.784;20.604;2024-03-02T05:47:24;12.50;60.50
43991;DHT22;29654;50.784;20.604;2024-03-02T05:52:26;12.50;60.40
43991;DHT22;29654;50.784;20.604;2024-03-02T05:57:31;12.60;60.50
43991;DHT22;29654;50.784;20.604;2024-03-02T06:02:46;12.70;60.50
43991;DHT22;29654;50.784;20.604;2024-03-02T06:07:49;12.60;60.40
43991;DHT22;29654;50.784;20.604;2024-03-02T06:12:53;12.70;60.40
43991;DHT22;29654;50.784;20.604;2024-03-02T06:17:56;12.70;60.60
43991;DHT22;29654;50.784;20.604;2024-03-02T06:22:58;12.70;60.60
43991;DHT22;29654;50.784;20.604;2024-03-02T06:28:03;12.80;60.70
43991;DHT22;29654;50.784;20.604;2024-03-02T06:33:06;12.80;60.80
43991;DHT22;29654;50.784;20.604;2024-03-02T06:38:09;12.90;60.70
43991;DHT22;29654;50.784;20.604;2024-03-02T06:43:14;13.00;60.70
43991;DHT22;29654;50.784;20.604;2024-03-02T06:48:17;13.10;60.60
43991;DHT22;29654;50.784;20.604;2024-03-02T06:53:21;13.10;60.50
43991;DHT22;29654;50.784;20.604;2024-03-02T06:58:26;13.20;60.40
43991;DHT22;29654;50.784;20.604;2024-03-02T07:03:30;13.30;60.40
43991;DHT22;29654;50.784;20.604;2024-03-02T07:08:34;13.30;60.40
43991;DHT22;29654;50.784;20.604;2024-03-02T07:13:38;13.40;60.20
43991;DHT22;29654;50.784;20.604;2024-03-02T07:18:41;13.40;60.00
43991;DHT22;29654;50.784;20.604;2024-03-02T07:23:46;13.50;60.00
43991;DHT22;29654;50.784;20.604;2024-03-02T07:28:51;13.50;60.00
43991;DHT22;29654;50.784;20.604;2024-03-02T07:33:55;13.60;60.00
43991;DHT22;29654;50.784;20.604;2024-03-02T07:38:58;13.60;59.90
43991;DHT22;29654;50.784;20.604;2024-03-02T07:44:03;13.60;60.00
43991;DHT22;29654;50.784;20.604;2024-03-02T07:49:06;13.70;60.00
43991;DHT22;29654;50.784;20.604;2024-03-02T07:54:09;13.70;60.00
43991;DHT22;29654;50.784;20.604;2024-03-02T07:59:13;13.70;60.00
43991;DHT22;29654;50.784;20.604;2024-03-02T08:04:16;13.80;60.00
43991;DHT22;29654;50.784;20.604;2024-03-02T08:09:19;13.80;60.00
43991;DHT22;29654;50.784;20.604;2024-03-02T08:14:23;13.90;60.00
43991;DHT22;29654;50.784;20.604;2024-03-02T08:19:29;14.00;59.90
43991;DHT22;29654;50.784;20.604;2024-03-02T08:24:32;14.00;59.80
43991;DHT22;29654;50.784;20.604;2024-03-02T08:29:36;14.10;59.70
43991;DHT22;29654;50.784;20.604;2024-03-02T08:34:40;14.20;59.70
43991;DHT22;29654;50.784;20.604;2024-03-02T08:39:45;14.20;59.60
43991;DHT22;29654;50.784;20.604;2024-03-02T08:44:49;14.30;59.50
43991;DHT22;29654;50.784;20.604;2024-03-02T08:49:52;14.30;59.40
43991;DHT22;29654;50.784;20.604;2024-03-02T08:54:55;14.40;59.30
43991;DHT22;29654;50.784;20.604;2024-03-02T08:59:59;14.50;59.20
43991;DHT22;29654;50.784;20.604;2024-03-02T09:05:03;14.50;59.10
43991;DHT22;29654;50.784;20.604;2024-03-02T09:10:07;14.50;59.10
43991;DHT22;29654;50.784;20.604;2024-03-02T09:15:14;14.50;59.00
43991;DHT22;29654;50.784;20.604;2024-03-02T09:20:19;14.60;59.00
43991;DHT22;29654;50.784;20.604;2024-03-02T09:25:22;14.60;59.00
43991;DHT22;29654;50.784;20.604;2024-03-02T09:30:27;14.60;58.90
43991;DHT22;29654;50.784;20.604;2024-03-02T09:35:30;14.60;58.90
43991;DHT22;29654;50.784;20.604;2024-03-02T09:40:33;14.70;58.90
43991;DHT22;29654;50.784;20.604;2024-03-02T09:45:38;14.80;59.60
43991;DHT22;29654;50.784;20.604;2024-03-02T09:50:40;14.80;59.40
43991;DHT22;29654;50.784;20.604;2024-03-02T09:55:46;15.00;58.70
43991;DHT22;29654;50.784;20.604;2024-03-02T10:00:50;15.10;58.70
43991;DHT22;29654;50.784;20.604;2024-03-02T10:05:53;15.20;58.50
43991;DHT22;29654;50.784;20.604;2024-03-02T10:10:56;15.30;58.40
43991;DHT22;29654;50.784;20.604;2024-03-02T10:16:12;15.40;58.30
43991;DHT22;29654;50.784;20.604;2024-03-02T10:21:15;15.50;58.00
43991;DHT22;29654;50.784;20.604;2024-03-02T10:26:18;15.60;58.20
43991;DHT22;29654;50.784;20.604;2024-03-02T10:31:23;15.70;58.00
43991;DHT22;29654;50.784;20.604;2024-03-02T10:36:28;15.80;57.90
43991;DHT22;29654;50.784;20.604;2024-03-02T10:41:33;15.90;57.90
43991;DHT22;29654;50.784;20.604;2024-03-02T10:46:38;16.00;57.80
43991;DHT22;29654;50.784;20.604;2024-03-02T10:51:41;16.10;57.40
43991;DHT22;29654;50.784;20.604;2024-03-02T10:56:45;16.10;57.30
43991;DHT22;29654;50.784;20.604;2024-03-02T11:01:50;16.20;57.50
43991;DHT22;29654;50.784;20.604;2024-03-02T11:07:00;16.30;57.30
43991;DHT22;29654;50.784;20.604;2024-03-02T11:12:19;16.40;57.80
43991;DHT22;29654;50.784;20.604;2024-03-02T11:17:25;16.40;57.00
43991;DHT22;29654;50.784;20.604;2024-03-02T11:22:28;16.50;56.90
43991;DHT22;29654;50.784;20.604;2024-03-02T11:27:59;16.60;56.90
43991;DHT22;29654;50.784;20.604;2024-03-02T11:33:06;16.60;56.30
43991;DHT22;29654;50.784;20.604;2024-03-02T11:38:10;16.70;56.70
43991;DHT22;29654;50.784;20.604;2024-03-02T11:43:13;16.70;56.70
43991;DHT22;29654;50.784;20.604;2024-03-02T11:48:20;16.80;56.50
43991;DHT22;29654;50.784;20.604;2024-03-02T11:53:22;16.90;56.20
43991;DHT22;29654;50.784;20.604;2024-03-02T11:58:27;16.90;56.20
43991;DHT22;29654;50.784;20.604;2024-03-02T12:03:32;16.90;55.90
43991;DHT22;29654;50.784;20.604;2024-03-02T12:08:37;16.90;55.90
43991;DHT22;29654;50.784;20.604;2024-03-02T12:13:40;16.90;56.00
43991;DHT22;29654;50.784;20.604;2024-03-02T12:18:44;16.90;56.20
43991;DHT22;29654;50.784;20.604;2024-03-02T12:23:48;17.00;56.20
43991;DHT22;29654;50.784;20.604;2024-03-02T12:28:52;17.10;56.20
43991;DHT22;29654;50.784;20.604;2024-03-02T12:33:56;17.10;56.00
43991;DHT22;29654;50.784;20.604;2024-03-02T12:39:00;17.20;55.90
43991;DHT22;29654;50.784;20.604;2024-03-02T12:44:03;17.20;55.90
43991;DHT22;29654;50.784;20.604;2024-03-02T12:49:09;17.30;55.70
43991;DHT22;29654;50.784;20.604;2024-03-02T12:54:13;17.30;55.40
43991;DHT22;29654;50.784;20.604;2024-03-02T12:59:23;17.30;55.50
43991;DHT22;29654;50.784;20.604;2024-03-02T13:04:29;17.30;55.20
43991;DHT22;29654;50.784;20.604;2024-03-02T13:09:32;17.20;56.10
43991;DHT22;29654;50.784;20.604;2024-03-02T13:14:36;17.20;55.60
43991;DHT22;29654;50.784;20.604;2024-03-02T13:19:44;17.30;55.60
43991;DHT22;29654;50.784;20.604;2024-03-02T13:24:54;17.30;55.30
43991;DHT22;29654;50.784;20.604;2024-03-02T13:29:57;17.30;55.50
43991;DHT22;29654;50.784;20.604;2024-03-02T13:35:01;17.40;55.50
43991;DHT22;29654;50.784;20.604;2024-03-02T13:40:05;17.40;55.40
43991;DHT22;29654;50.784;20.604;2024-03-02T13:45:14;17.50;55.40
43991;DHT22;29654;50.784;20.604;2024-03-02T13:50:18;17.60;55.30
43991;DHT22;29654;50.784;20.604;2024-03-02T13:55:22;17.60;54.90
43991;DHT22;29654;50.784;20.604;2024-03-02T14:00:26;17.70;54.80
43991;DHT22;29654;50.784;20.604;2024-03-02T14:05:31;17.70;54.80
43991;DHT22;29654;50.784;20.604;2024-03-02T14:10:34;17.70;54.80
43991;DHT22;29654;50.784;20.604;2024-03-02T14:15:37;17.80;55.00
43991;DHT22;29654;50.784;20.604;2024-03-02T14:20:41;17.90;54.90
43991;DHT22;29654;50.784;20.604;2024-03-02T14:25:44;18.00;54.60
43991;DHT22;29654;50.784;20.604;2024-03-02T14:30:47;18.10;54.50
43991;DHT22;29654;50.784;20.604;2024-03-02T14:35:52;18.10;54.20
43991;DHT22;29654;50.784;20.604;2024-03-02T14:40:55;18.10;54.00
43991;DHT22;29654;50.784;20.604;2024-03-02T14:45:59;18.10;54.00
43991;DHT22;29654;50.784;20.604;2024-03-02T14:51:04;18.10;54.00
43991;DHT22;29654;50.784;20.604;2024-03-02T14:56:07;18.10;53.90
43991;DHT22;29654;50.784;20.604;2024-03-02T15:01:10;18.00;53.90
43991;DHT22;29654;50.784;20.604;2024-03-02T15:06:15;18.00;53.90
43991;DHT22;29654;50.784;20.604;2024-03-02T15:11:17;17.90;53.70
43991;DHT22;29654;50.784;20.604;2024-03-02T15:16:20;17.80;53.90
43991;DHT22;29654;50.784;20.604;2024-03-02T15:21:24;17.80;53.80
43991;DHT22;29654;50.784;20.604;2024-03-02T15:26:27;17.70;53.80
43991;DHT22;29654;50.784;20.604;2024-03-02T15:31:30;17.60;53.90
43991;DHT22;29654;50.784;20.604;2024-03-02T15:36:36;17.60;53.90
43991;DHT22;29654;50.784;20.604;2024-03-02T15:41:39;17.50;53.80
43991;DHT22;29654;50.784;20.604;2024-03-02T15:46:43;17.40;54.00
43991;DHT22;29654;50.784;20.604;2024-03-02T15:51:47;17.40;54.10
43991;DHT22;29654;50.784;20.604;2024-03-02T15:56:50;17.30;54.00
43991;DHT22;29654;50.784;20.604;2024-03-02T16:01:52;17.30;54.10
43991;DHT22;29654;50.784;20.604;2024-03-02T16:06:59;17.30;54.80
43991;DHT22;29654;50.784;20.604;2024-03-02T16:12:02;17.20;54.00
43991;DHT22;29654;50.784;20.604;2024-03-02T16:17:06;17.10;54.00
43991;DHT22;29654;50.784;20.604;2024-03-02T16:22:10;17.00;54.10
43991;DHT22;29654;50.784;20.604;2024-03-02T16:27:13;17.00;54.10
43991;DHT22;29654;50.784;20.604;2024-03-02T16:32:15;16.90;54.20
43991;DHT22;29654;50.784;20.604;2024-03-02T16:37:20;16.80;54.30
43991;DHT22;29654;50.784;20.604;2024-03-02T16:42:24;16.70;54.40
43991;DHT22;29654;50.784;20.604;2024-03-02T16:47:27;16.60;54.50
43991;DHT22;29654;50.784;20.604;2024-03-02T16:52:31;16.50;54.60
43991;DHT22;29654;50.784;20.604;2024-03-02T16:57:35;16.40;54.70
43991;DHT22;29654;50.784;20.604;2024-03-02T17:02:37;16.30;54.80
43991;DHT22;29654;50.784;20.604;2024-03-02T17:07:42;16.20;54.90
43991;DHT22;29654;50.784;20.604;2024-03-02T17:12:45;16.10;55.10
43991;DHT22;29654;50.784;20.604;2024-03-02T17:17:47;16.00;55.20
43991;DHT22;29654;50.784;20.604;2024-03-02T17:22:52;15.90;55.30
43991;DHT22;29654;50.784;20.604;2024-03-02T17:33:20;15.80;55.50
43991;DHT22;29654;50.784;20.604;2024-03-02T17:38:24;15.70;55.70
43991;DHT22;29654;50.784;20.604;2024-03-02T17:43:28;15.60;55.80
43991;DHT22;29654;50.784;20.604;2024-03-02T17:48:31;15.50;55.90
43991;DHT22;29654;50.784;20.604;2024-03-02T17:53:35;15.40;56.00
43991;DHT22;29654;50.784;20.604;2024-03-02T17:58:38;15.40;56.20
43991;DHT22;29654;50.784;20.604;2024-03-02T18:03:41;15.30;56.30
43991;DHT22;29654;50.784;20.604;2024-03-02T18:08:45;15.30;56.40
43991;DHT22;29654;50.784;20.604;2024-03-02T18:13:50;15.20;56.60
43991;DHT22;29654;50.784;20.604;2024-03-02T18:18:53;15.10;56.60
43991;DHT22;29654;50.784;20.604;2024-03-02T18:23:57;15.10;56.70
43991;DHT22;29654;50.784;20.604;2024-03-02T18:29:00;15.10;56.90
43991;DHT22;29654;50.784;20.604;2024-03-02T18:34:04;15.00;56.80
43991;DHT22;29654;50.784;20.604;2024-03-02T18:39:08;15.00;56.90
43991;DHT22;29654;50.784;20.604;2024-03-02T18:44:11;15.00;57.00
43991;DHT22;29654;50.784;20.604;2024-03-02T18:49:14;14.90;57.00
43991;DHT22;29654;50.784;20.604;2024-03-02T18:54:18;14.90;57.10
43991;DHT22;29654;50.784;20.604;2024-03-02T18:59:21;14.90;57.10
43991;DHT22;29654;50.784;20.604;2024-03-02T19:04:25;14.90;57.10
43991;DHT22;29654;50.784;20.604;2024-03-02T19:09:29;14.80;57.10
43991;DHT22;29654;50.784;20.604;2024-03-02T19:14:32;14.80;57.20
43991;DHT22;29654;50.784;20.604;2024-03-02T19:19:35;14.80;57.10
43991;DHT22;29654;50.784;20.604;2024-03-02T19:24:39;14.70;57.20
43991;DHT22;29654;50.784;20.604;2024-03-02T19:29:42;14.70;57.20
43991;DHT22;29654;50.784;20.604;2024-03-02T19:34:45;14.70;57.30
43991;DHT22;29654;50.784;20.604;2024-03-02T19:39:50;14.70;57.30
43991;DHT22;29654;50.784;20.604;2024-03-02T19:44:52;14.70;57.30
43991;DHT22;29654;50.784;20.604;2024-03-02T19:49:55;14.70;57.30
43991;DHT22;29654;50.784;20.604;2024-03-02T19:55:00;14.70;57.30
43991;DHT22;29654;50.784;20.604;2024-03-02T20:00:07;14.60;57.30
43991;DHT22;29654;50.784;20.604;2024-03-02T20:05:10;14.60;57.40
43991;DHT22;29654;50.784;20.604;2024-03-02T20:10:15;14.60;57.40
43991;DHT22;29654;50.784;20.604;2024-03-02T20:15:18;14.60;57.40
43991;DHT22;29654;50.784;20.604;2024-03-02T20:20:21;14.60;57.50
43991;DHT22;29654;50.784;20.604;2024-03-02T20:25:25;14.60;57.50
43991;DHT22;29654;50.784;20.604;2024-03-02T20:30:28;14.60;57.50
43991;DHT22;29654;50.784;20.604;2024-03-02T20:35:31;14.60;57.50
43991;DHT22;29654;50.784;20.604;2024-03-02T20:40:35;14.60;57.50
43991;DHT22;29654;50.784;20.604;2024-03-02T20:45:38;14.50;57.50
43991;DHT22;29654;50.784;20.604;2024-03-02T20:50:41;14.50;57.50
43991;DHT22;29654;50.784;20.604;2024-03-02T20:55:45;14.60;57.50
43991;DHT22;29654;50.784;20.604;2024-03-02T21:00:48;14.60;57.30
43991;DHT22;29654;50.784;20.604;2024-03-02T21:05:51;14.60;57.30
43991;DHT22;29654;50.784;20.604;2024-03-02T21:10:55;14.60;57.20
43991;DHT22;29654;50.784;20.604;2024-03-02T21:15:58;14.60;57.20
43991;DHT22;29654;50.784;20.604;2024-03-02T21:21:00;14.50;57.20
43991;DHT22;29654;50.784;20.604;2024-03-02T21:26:05;14.50;57.20
43991;DHT22;29654;50.784;20.604;2024-03-02T21:31:08;14.50;57.20
43991;DHT22;29654;50.784;20.604;2024-03-02T21:36:16;14.40;57.20
43991;DHT22;29654;50.784;20.604;2024-03-02T21:41:21;14.40;57.20
43991;DHT22;29654;50.784;20.604;2024-03-02T21:46:25;14.40;57.20
43991;DHT22;29654;50.784;20.604;2024-03-02T21:51:28;14.30;57.30
43991;DHT22;29654;50.784;20.604;2024-03-02T21:56:32;14.30;57.30
43991;DHT22;29654;50.784;20.604;2024-03-02T22:01:35;14.20;57.40
43991;DHT22;29654;50.784;20.604;2024-03-02T22:06:38;14.20;57.40
43991;DHT22;29654;50.784;20.604;2024-03-02T22:11:42;14.20;57.50
43991;DHT22;29654;50.784;20.604;2024-03-02T22:16:45;14.20;57.50
43991;DHT22;29654;50.784;20.604;2024-03-02T22:21:48;14.10;57.50
43991;DHT22;29654;50.784;20.604;2024-03-02T22:26:52;14.10;57.50
43991;DHT22;29654;50.784;20.604;2024-03-02T22:31:54;14.10;57.60
43991;DHT22;29654;50.784;20.604;2024-03-02T22:36:57;14.00;57.60
43991;DHT22;29654;50.784;20.604;2024-03-02T22:42:01;14.00;57.70
43991;DHT22;29654;50.784;20.604;2024-03-02T22:47:05;14.00;57.70
43991;DHT22;29654;50.784;20.604;2024-03-02T22:52:07;14.00;57.70
43991;DHT22;29654;50.784;20.604;2024-03-02T22:57:12;14.00;57.60
43991;DHT22;29654;50.784;20.604;2024-03-02T23:02:18;14.00;57.60
43991;DHT22;29654;50.784;20.604;2024-03-02T23:07:21;14.00;57.60
43991;DHT22;29654;50.784;20.604;2024-03-02T23:12:25;14.00;57.60
43991;DHT22;29654;50.784;20.604;2024-03-02T23:17:28;14.00;57.60
43991;DHT22;29654;50.784;20.604;2024-03-02T23:22:31;13.90;57.60
43991;DHT22;29654;50.784;20.604;2024-03-02T23:27:35;13.90;57.60
43991;DHT22;29654;50.784;20.604;2024-03-02T23:32:38;13.90;57.70
43991;DHT22;29654;50.784;20.604;2024-03-02T23:37:40;13.80;57.60
43991;DHT22;29654;50.784;20.604;2024-03-02T23:42:45;13.80;57.60
43991;DHT22;29654;50.784;20.604;2024-03-02T23:47:48;13.80;57.70
43991;DHT22;29654;50.784;20.604;2024-03-02T23:52:51;13.70;57.70
43991;DHT22;29654;50.784;20.604;2024-03-02T23:57:55;13.60;57.80
